sensor_id;sensor_type;location;lat;lon;timestamp;P1;P2;P0
55518;PMS5003;41724;51.176;-0.708;2022-12-18T00:01:14;104;86;
55518;PMS5003;41724;51.176;-0.708;2022-12-18T00:03:43;104;93;
55518;PMS5003;41724;51.176;-0.708;2022-12-18T00:06:11;106;89;
55518;PMS5003;41724;51.176;-0.708;2022-12-18T00:08:38;106;90;
55518;PMS5003;41724;51.176;-0.708;2022-12-18T00:11:05;89;81;
55518;PMS5003;41724;51.176;-0.708;2022-12-18T00:13:35;107;88;
55518;PMS5003;41724;51.176;-0.708;2022-12-18T00:16:04;93;82;
55518;PMS5003;41724;51.176;-0.708;2022-12-18T00:18:35;99;90;
55518;PMS5003;41724;51.176;-0.708;2022-12-18T00:21:04;97;82;
55518;PMS5003;41724;51.176;-0.708;2022-12-18T00:23:34;97;84;
55518;PMS5003;41724;51.176;-0.708;2022-12-18T00:26:03;93;81;
55518;PMS5003;41724;51.176;-0.708;2022-12-18T00:28:32;89;81;
55518;PMS5003;41724;51.176;-0.708;2022-12-18T00:31:00;81;73;
55518;PMS5003;41724;51.176;-0.708;2022-12-18T00:33:27;100;90;
55518;PMS5003;41724;51.176;-0.708;2022-12-18T00:35:54;105;95;
55518;PMS5003;41724;51.176;-0.708;2022-12-18T00:38:26;104;91;
55518;PMS5003;41724;51.176;-0.708;2022-12-18T00:40:53;97;92;
55518;PMS5003;41724;51.176;-0.708;2022-12-18T00:43:20;76;69;
55518;PMS5003;41724;51.176;-0.708;2022-12-18T00:45:48;80;71;
55518;PMS5003;41724;51.176;-0.708;2022-12-18T00:48:15;83;75;
55518;PMS5003;41724;51.176;-0.708;2022-12-18T00:50:43;72;67;
55518;PMS5003;41724;51.176;-0.708;2022-12-18T00:53:10;79;71;
55518;PMS5003;41724;51.176;-0.708;2022-12-18T00:55:38;76;72;
55518;PMS5003;41724;51.176;-0.708;2022-12-18T00:58:06;68;62;
55518;PMS5003;41724;51.176;-0.708;2022-12-18T01:00:34;76;65;
55518;PMS5003;41724;51.176;-0.708;2022-12-18T01:03:01;76;65;
55518;PMS5003;41724;51.176;-0.708;2022-12-18T01:05:28;82;75;
55518;PMS5003;41724;51.176;-0.708;2022-12-18T01:07:56;79;73;
55518;PMS5003;41724;51.176;-0.708;2022-12-18T01:10:24;79;71;
55518;PMS5003;41724;51.176;-0.708;2022-12-18T01:12:51;73;64;
55518;PMS5003;41724;51.176;-0.708;2022-12-18T01:15:19;82;74;
55518;PMS5003;41724;51.176;-0.708;2022-12-18T01:17:46;81;76;
55518;PMS5003;41724;51.176;-0.708;2022-12-18T01:20:13;84;76;
55518;PMS5003;41724;51.176;-0.708;2022-12-18T01:22:40;79;74;
55518;PMS5003;41724;51.176;-0.708;2022-12-18T01:25:07;73;63;
55518;PMS5003;41724;51.176;-0.708;2022-12-18T01:27:35;83;70;
55518;PMS5003;41724;51.176;-0.708;2022-12-18T01:30:02;78;68;
55518;PMS5003;41724;51.176;-0.708;2022-12-18T01:32:30;75;67;
55518;PMS5003;41724;51.176;-0.708;2022-12-18T01:34:57;77;69;
55518;PMS5003;41724;51.176;-0.708;2022-12-18T01:37:24;86;73;
55518;PMS5003;41724;51.176;-0.708;2022-12-18T01:39:53;75;65;
55518;PMS5003;41724;51.176;-0.708;2022-12-18T01:42:21;77;72;
55518;PMS5003;41724;51.176;-0.708;2022-12-18T01:44:55;64;59;
55518;PMS5003;41724;51.176;-0.708;2022-12-18T01:47:27;79;74;
55518;PMS5003;41724;51.176;-0.708;2022-12-18T01:49:59;71;60;
55518;PMS5003;41724;51.176;-0.708;2022-12-18T01:52:31;62;57;
55518;PMS5003;41724;51.176;-0.708;2022-12-18T01:55:00;55;54;
55518;PMS5003;41724;51.176;-0.708;2022-12-18T01:57:29;68;60;
55518;PMS5003;41724;51.176;-0.708;2022-12-18T01:59:59;60;53;
55518;PMS5003;41724;51.176;-0.708;2022-12-18T02:02:31;65;56;
55518;PMS5003;41724;51.176;-0.708;2022-12-18T02:04:59;63;56;
55518;PMS5003;41724;51.176;-0.708;2022-12-18T02:07:29;56;47;
55518;PMS5003;41724;51.176;-0.708;2022-12-18T02:10:07;58;57;
55518;PMS5003;41724;51.176;-0.708;2022-12-18T02:12:45;58;52;
55518;PMS5003;41724;51.176;-0.708;2022-12-18T02:15:19;47;47;
55518;PMS5003;41724;51.176;-0.708;2022-12-18T02:17:54;57;53;
55518;PMS5003;41724;51.176;-0.708;2022-12-18T02:20:34;56;53;
55518;PMS5003;41724;51.176;-0.708;2022-12-18T02:23:06;62;53;
55518;PMS5003;41724;51.176;-0.708;2022-12-18T02:25:53;49;44;
55518;PMS5003;41724;51.176;-0.708;2022-12-18T02:28:34;51;47;
55518;PMS5003;41724;51.176;-0.708;2022-12-18T02:31:07;58;54;
55518;PMS5003;41724;51.176;-0.708;2022-12-18T02:33:37;61;57;
55518;PMS5003;41724;51.176;-0.708;2022-12-18T02:36:06;57;51;
55518;PMS5003;41724;51.176;-0.708;2022-12-18T02:38:36;67;58;
55518;PMS5003;41724;51.176;-0.708;2022-12-18T02:41:04;55;50;
55518;PMS5003;41724;51.176;-0.708;2022-12-18T02:43:32;60;57;
55518;PMS5003;41724;51.176;-0.708;2022-12-18T02:46:00;51;48;
55518;PMS5003;41724;51.176;-0.708;2022-12-18T02:48:50;49;48;
55518;PMS5003;41724;51.176;-0.708;2022-12-18T02:51:23;54;50;
55518;PMS5003;41724;51.176;-0.708;2022-12-18T02:53:58;60;51;
55518;PMS5003;41724;51.176;-0.708;2022-12-18T02:56:33;56;52;
55518;PMS5003;41724;51.176;-0.708;2022-12-18T02:59:06;55;49;
55518;PMS5003;41724;51.176;-0.708;2022-12-18T03:01:38;48;42;
55518;PMS5003;41724;51.176;-0.708;2022-12-18T03:04:18;56;50;
55518;PMS5003;41724;51.176;-0.708;2022-12-18T03:06:53;50;45;
55518;PMS5003;41724;51.176;-0.708;2022-12-18T03:09:24;47;41;
55518;PMS5003;41724;51.176;-0.708;2022-12-18T03:12:01;47;42;
55518;PMS5003;41724;51.176;-0.708;2022-12-18T03:14:31;36;35;
55518;PMS5003;41724;51.176;-0.708;2022-12-18T03:17:02;45;39;
55518;PMS5003;41724;51.176;-0.708;2022-12-18T03:19:35;43;40;
55518;PMS5003;41724;51.176;-0.708;2022-12-18T03:22:03;51;46;
55518;PMS5003;41724;51.176;-0.708;2022-12-18T03:24:33;54;46;
55518;PMS5003;41724;51.176;-0.708;2022-12-18T03:27:02;46;41;
55518;PMS5003;41724;51.176;-0.708;2022-12-18T03:29:35;53;49;
55518;PMS5003;41724;51.176;-0.708;2022-12-18T03:32:11;47;44;
55518;PMS5003;41724;51.176;-0.708;2022-12-18T03:34:43;56;51;
55518;PMS5003;41724;51.176;-0.708;2022-12-18T03:37:15;41;40;
55518;PMS5003;41724;51.176;-0.708;2022-12-18T03:39:42;45;38;
55518;PMS5003;41724;51.176;-0.708;2022-12-18T03:42:11;40;37;
55518;PMS5003;41724;51.176;-0.708;2022-12-18T03:44:49;42;37;
55518;PMS5003;41724;51.176;-0.708;2022-12-18T03:47:26;42;38;
55518;PMS5003;41724;51.176;-0.708;2022-12-18T03:49:56;50;47;
55518;PMS5003;41724;51.176;-0.708;2022-12-18T03:52:30;41;37;
55518;PMS5003;41724;51.176;-0.708;2022-12-18T03:55:02;34;33;
55518;PMS5003;41724;51.176;-0.708;2022-12-18T03:57:31;37;34;
55518;PMS5003;41724;51.176;-0.708;2022-12-18T04:00:00;38;34;
55518;PMS5003;41724;51.176;-0.708;2022-12-18T04:02:32;32;32;
55518;PMS5003;41724;51.176;-0.708;2022-12-18T04:05:02;43;36;
55518;PMS5003;41724;51.176;-0.708;2022-12-18T04:07:31;39;39;
55518;PMS5003;41724;51.176;-0.708;2022-12-18T04:09:58;44;42;
55518;PMS5003;41724;51.176;-0.708;2022-12-18T04:12:29;56;45;
55518;PMS5003;41724;51.176;-0.708;2022-12-18T04:14:56;40;36;
55518;PMS5003;41724;51.176;-0.708;2022-12-18T04:17:23;40;38;
55518;PMS5003;41724;51.176;-0.708;2022-12-18T04:19:50;40;39;
55518;PMS5003;41724;51.176;-0.708;2022-12-18T04:22:17;35;33;
55518;PMS5003;41724;51.176;-0.708;2022-12-18T04:24:44;41;36;
55518;PMS5003;41724;51.176;-0.708;2022-12-18T04:27:11;41;36;
55518;PMS5003;41724;51.176;-0.708;2022-12-18T04:29:38;41;36;
55518;PMS5003;41724;51.176;-0.708;2022-12-18T04:32:06;38;36;
55518;PMS5003;41724;51.176;-0.708;2022-12-18T04:34:34;47;42;
55518;PMS5003;41724;51.176;-0.708;2022-12-18T04:37:01;31;30;
55518;PMS5003;41724;51.176;-0.708;2022-12-18T04:39:29;31;29;
55518;PMS5003;41724;51.176;-0.708;2022-12-18T04:41:56;37;35;
55518;PMS5003;41724;51.176;-0.708;2022-12-18T04:44:23;38;36;
55518;PMS5003;41724;51.176;-0.708;2022-12-18T04:46:50;36;33;
55518;PMS5003;41724;51.176;-0.708;2022-12-18T04:49:17;31;28;
55518;PMS5003;41724;51.176;-0.708;2022-12-18T04:51:44;32;30;
55518;PMS5003;41724;51.176;-0.708;2022-12-18T04:54:11;42;37;
55518;PMS5003;41724;51.176;-0.708;2022-12-18T04:56:39;25;24;
55518;PMS5003;41724;51.176;-0.708;2022-12-18T04:59:06;29;27;
55518;PMS5003;41724;51.176;-0.708;2022-12-18T05:01:33;36;32;
55518;PMS5003;41724;51.176;-0.708;2022-12-18T05:04:01;35;33;
55518;PMS5003;41724;51.176;-0.708;2022-12-18T05:06:29;31;27;
55518;PMS5003;41724;51.176;-0.708;2022-12-18T05:08:56;38;35;
55518;PMS5003;41724;51.176;-0.708;2022-12-18T05:11:24;27;26;
55518;PMS5003;41724;51.176;-0.708;2022-12-18T05:13:51;33;31;
55518;PMS5003;41724;51.176;-0.708;2022-12-18T05:16:18;27;27;
55518;PMS5003;41724;51.176;-0.708;2022-12-18T05:18:45;28;27;
55518;PMS5003;41724;51.176;-0.708;2022-12-18T05:21:12;29;25;
55518;PMS5003;41724;51.176;-0.708;2022-12-18T05:23:39;33;29;
55518;PMS5003;41724;51.176;-0.708;2022-12-18T05:26:06;31;27;
55518;PMS5003;41724;51.176;-0.708;2022-12-18T05:28:34;36;33;
55518;PMS5003;41724;51.176;-0.708;2022-12-18T05:31:03;26;25;
55518;PMS5003;41724;51.176;-0.708;2022-12-18T05:33:32;26;25;
55518;PMS5003;41724;51.176;-0.708;2022-12-18T05:36:01;36;31;
55518;PMS5003;41724;51.176;-0.708;2022-12-18T05:38:30;30;26;
55518;PMS5003;41724;51.176;-0.708;2022-12-18T05:40:59;27;26;
55518;PMS5003;41724;51.176;-0.708;2022-12-18T05:43:26;37;31;
55518;PMS5003;41724;51.176;-0.708;2022-12-18T05:45:54;27;25;
55518;PMS5003;41724;51.176;-0.708;2022-12-18T05:48:22;28;27;
55518;PMS5003;41724;51.176;-0.708;2022-12-18T05:50:49;27;22;
55518;PMS5003;41724;51.176;-0.708;2022-12-18T05:53:20;27;25;
55518;PMS5003;41724;51.176;-0.708;2022-12-18T05:55:47;24;22;
55518;PMS5003;41724;51.176;-0.708;2022-12-18T05:58:16;22;22;
55518;PMS5003;41724;51.176;-0.708;2022-12-18T06:00:44;31;28;
55518;PMS5003;41724;51.176;-0.708;2022-12-18T06:03:12;29;27;
55518;PMS5003;41724;51.176;-0.708;2022-12-18T06:05:40;29;28;
55518;PMS5003;41724;51.176;-0.708;2022-12-18T06:08:10;29;26;
55518;PMS5003;41724;51.176;-0.708;2022-12-18T06:10:38;33;28;
55518;PMS5003;41724;51.176;-0.708;2022-12-18T06:13:05;26;23;
55518;PMS5003;41724;51.176;-0.708;2022-12-18T06:15:35;30;27;
55518;PMS5003;41724;51.176;-0.708;2022-12-18T06:18:03;28;28;
55518;PMS5003;41724;51.176;-0.708;2022-12-18T06:20:31;27;27;
55518;PMS5003;41724;51.176;-0.708;2022-12-18T06:22:58;29;28;
55518;PMS5003;41724;51.176;-0.708;2022-12-18T06:25:26;31;31;
55518;PMS5003;41724;51.176;-0.708;2022-12-18T06:27:53;23;21;
55518;PMS5003;41724;51.176;-0.708;2022-12-18T06:30:20;34;32;
55518;PMS5003;41724;51.176;-0.708;2022-12-18T06:32:47;26;25;
55518;PMS5003;41724;51.176;-0.708;2022-12-18T06:35:16;32;27;
55518;PMS5003;41724;51.176;-0.708;2022-12-18T06:37:43;25;25;
55518;PMS5003;41724;51.176;-0.708;2022-12-18T06:40:10;30;29;
55518;PMS5003;41724;51.176;-0.708;2022-12-18T06:42:38;23;22;
55518;PMS5003;41724;51.176;-0.708;2022-12-18T06:45:05;27;25;
55518;PMS5003;41724;51.176;-0.708;2022-12-18T06:47:33;34;32;
55518;PMS5003;41724;51.176;-0.708;2022-12-18T06:50:00;30;28;
55518;PMS5003;41724;51.176;-0.708;2022-12-18T06:52:31;30;27;
55518;PMS5003;41724;51.176;-0.708;2022-12-18T06:54:58;22;21;
55518;PMS5003;41724;51.176;-0.708;2022-12-18T06:57:25;24;24;
55518;PMS5003;41724;51.176;-0.708;2022-12-18T06:59:52;31;27;
55518;PMS5003;41724;51.176;-0.708;2022-12-18T07:02:20;24;24;
55518;PMS5003;41724;51.176;-0.708;2022-12-18T07:04:47;25;22;
55518;PMS5003;41724;51.176;-0.708;2022-12-18T07:07:17;28;25;
55518;PMS5003;41724;51.176;-0.708;2022-12-18T07:09:44;27;25;
55518;PMS5003;41724;51.176;-0.708;2022-12-18T07:12:11;37;33;
55518;PMS5003;41724;51.176;-0.708;2022-12-18T07:14:38;32;28;
55518;PMS5003;41724;51.176;-0.708;2022-12-18T07:17:05;35;31;
55518;PMS5003;41724;51.176;-0.708;2022-12-18T07:19:32;30;29;
55518;PMS5003;41724;51.176;-0.708;2022-12-18T07:21:59;30;28;
55518;PMS5003;41724;51.176;-0.708;2022-12-18T07:24:27;25;25;
55518;PMS5003;41724;51.176;-0.708;2022-12-18T07:26:55;32;31;
55518;PMS5003;41724;51.176;-0.708;2022-12-18T07:29:22;37;36;
55518;PMS5003;41724;51.176;-0.708;2022-12-18T07:31:51;25;23;
55518;PMS5003;41724;51.176;-0.708;2022-12-18T07:34:18;33;32;
55518;PMS5003;41724;51.176;-0.708;2022-12-18T07:36:45;25;24;
55518;PMS5003;41724;51.176;-0.708;2022-12-18T07:39:12;30;26;
55518;PMS5003;41724;51.176;-0.708;2022-12-18T07:41:39;32;28;
55518;PMS5003;41724;51.176;-0.708;2022-12-18T07:44:08;31;30;
55518;PMS5003;41724;51.176;-0.708;2022-12-18T07:46:36;32;30;
55518;PMS5003;41724;51.176;-0.708;2022-12-18T07:49:03;32;30;
55518;PMS5003;41724;51.176;-0.708;2022-12-18T07:51:30;36;35;
55518;PMS5003;41724;51.176;-0.708;2022-12-18T07:53:57;28;27;
55518;PMS5003;41724;51.176;-0.708;2022-12-18T07:56:24;32;29;
55518;PMS5003;41724;51.176;-0.708;2022-12-18T07:58:52;32;32;
55518;PMS5003;41724;51.176;-0.708;2022-12-18T08:01:19;25;24;
55518;PMS5003;41724;51.176;-0.708;2022-12-18T08:03:46;37;34;
55518;PMS5003;41724;51.176;-0.708;2022-12-18T08:06:13;29;26;
55518;PMS5003;41724;51.176;-0.708;2022-12-18T08:08:40;29;28;
55518;PMS5003;41724;51.176;-0.708;2022-12-18T08:11:07;23;23;
55518;PMS5003;41724;51.176;-0.708;2022-12-18T08:13:34;33;31;
55518;PMS5003;41724;51.176;-0.708;2022-12-18T08:16:02;32;31;
55518;PMS5003;41724;51.176;-0.708;2022-12-18T08:18:31;35;32;
55518;PMS5003;41724;51.176;-0.708;2022-12-18T08:21:07;26;24;
55518;PMS5003;41724;51.176;-0.708;2022-12-18T08:23:34;33;30;
55518;PMS5003;41724;51.176;-0.708;2022-12-18T08:26:02;33;32;
55518;PMS5003;41724;51.176;-0.708;2022-12-18T08:28:29;32;29;
55518;PMS5003;41724;51.176;-0.708;2022-12-18T08:30:57;31;28;
55518;PMS5003;41724;51.176;-0.708;2022-12-18T08:33:24;41;36;
55518;PMS5003;41724;51.176;-0.708;2022-12-18T08:35:51;36;35;
55518;PMS5003;41724;51.176;-0.708;2022-12-18T08:38:19;35;32;
55518;PMS5003;41724;51.176;-0.708;2022-12-18T08:40:47;36;33;
55518;PMS5003;41724;51.176;-0.708;2022-12-18T08:43:16;37;37;
55518;PMS5003;41724;51.176;-0.708;2022-12-18T08:45:43;28;27;
55518;PMS5003;41724;51.176;-0.708;2022-12-18T08:48:11;30;28;
55518;PMS5003;41724;51.176;-0.708;2022-12-18T08:50:38;32;32;
55518;PMS5003;41724;51.176;-0.708;2022-12-18T08:53:04;33;32;
55518;PMS5003;41724;51.176;-0.708;2022-12-18T08:55:32;39;36;
55518;PMS5003;41724;51.176;-0.708;2022-12-18T08:57:59;31;30;
55518;PMS5003;41724;51.176;-0.708;2022-12-18T09:00:26;30;28;
55518;PMS5003;41724;51.176;-0.708;2022-12-18T09:02:52;29;29;
55518;PMS5003;41724;51.176;-0.708;2022-12-18T09:05:20;37;34;
55518;PMS5003;41724;51.176;-0.708;2022-12-18T09:07:52;29;29;
55518;PMS5003;41724;51.176;-0.708;2022-12-18T09:10:19;40;37;
55518;PMS5003;41724;51.176;-0.708;2022-12-18T09:12:46;27;26;
55518;PMS5003;41724;51.176;-0.708;2022-12-18T09:15:13;33;31;
55518;PMS5003;41724;51.176;-0.708;2022-12-18T09:17:41;36;32;
55518;PMS5003;41724;51.176;-0.708;2022-12-18T09:20:09;42;36;
55518;PMS5003;41724;51.176;-0.708;2022-12-18T09:22:36;31;30;
55518;PMS5003;41724;51.176;-0.708;2022-12-18T09:25:03;37;37;
55518;PMS5003;41724;51.176;-0.708;2022-12-18T09:27:31;36;33;
55518;PMS5003;41724;51.176;-0.708;2022-12-18T09:29:58;29;28;
55518;PMS5003;41724;51.176;-0.708;2022-12-18T09:32:25;37;36;
55518;PMS5003;41724;51.176;-0.708;2022-12-18T09:34:52;34;34;
55518;PMS5003;41724;51.176;-0.708;2022-12-18T09:37:20;51;50;
55518;PMS5003;41724;51.176;-0.708;2022-12-18T09:39:48;57;50;
55518;PMS5003;41724;51.176;-0.708;2022-12-18T09:42:17;49;48;
55518;PMS5003;41724;51.176;-0.708;2022-12-18T09:44:49;54;52;
55518;PMS5003;41724;51.176;-0.708;2022-12-18T09:47:18;50;45;
55518;PMS5003;41724;51.176;-0.708;2022-12-18T09:49:52;47;43;
55518;PMS5003;41724;51.176;-0.708;2022-12-18T09:52:26;43;38;
55518;PMS5003;41724;51.176;-0.708;2022-12-18T09:54:59;50;45;
55518;PMS5003;41724;51.176;-0.708;2022-12-18T09:57:33;47;44;
55518;PMS5003;41724;51.176;-0.708;2022-12-18T10:00:08;43;42;
55518;PMS5003;41724;51.176;-0.708;2022-12-18T10:02:42;36;35;
55518;PMS5003;41724;51.176;-0.708;2022-12-18T10:05:11;44;38;
55518;PMS5003;41724;51.176;-0.708;2022-12-18T10:07:46;48;45;
55518;PMS5003;41724;51.176;-0.708;2022-12-18T10:10:23;36;32;
55518;PMS5003;41724;51.176;-0.708;2022-12-18T10:13:00;40;39;
55518;PMS5003;41724;51.176;-0.708;2022-12-18T10:15:36;47;44;
55518;PMS5003;41724;51.176;-0.708;2022-12-18T10:18:19;45;40;
55518;PMS5003;41724;51.176;-0.708;2022-12-18T10:20:56;46;43;
55518;PMS5003;41724;51.176;-0.708;2022-12-18T10:23:32;48;40;
55518;PMS5003;41724;51.176;-0.708;2022-12-18T10:26:05;39;37;
55518;PMS5003;41724;51.176;-0.708;2022-12-18T10:28:34;40;37;
55518;PMS5003;41724;51.176;-0.708;2022-12-18T10:31:04;47;46;
55518;PMS5003;41724;51.176;-0.708;2022-12-18T10:33:32;43;40;
55518;PMS5003;41724;51.176;-0.708;2022-12-18T10:36:00;55;51;
55518;PMS5003;41724;51.176;-0.708;2022-12-18T10:38:28;43;40;
55518;PMS5003;41724;51.176;-0.708;2022-12-18T10:40:58;50;47;
55518;PMS5003;41724;51.176;-0.708;2022-12-18T10:43:27;50;46;
55518;PMS5003;41724;51.176;-0.708;2022-12-18T10:45:58;50;49;
55518;PMS5003;41724;51.176;-0.708;2022-12-18T10:48:28;55;50;
55518;PMS5003;41724;51.176;-0.708;2022-12-18T10:50:57;47;45;
55518;PMS5003;41724;51.176;-0.708;2022-12-18T10:53:26;55;46;
55518;PMS5003;41724;51.176;-0.708;2022-12-18T10:55:55;47;43;
55518;PMS5003;41724;51.176;-0.708;2022-12-18T10:58:25;41;39;
55518;PMS5003;41724;51.176;-0.708;2022-12-18T11:01:02;45;41;
55518;PMS5003;41724;51.176;-0.708;2022-12-18T11:03:33;45;42;
55518;PMS5003;41724;51.176;-0.708;2022-12-18T11:06:03;47;42;
55518;PMS5003;41724;51.176;-0.708;2022-12-18T11:08:33;41;40;
55518;PMS5003;41724;51.176;-0.708;2022-12-18T11:11:00;50;44;
55518;PMS5003;41724;51.176;-0.708;2022-12-18T11:13:29;50;44;
55518;PMS5003;41724;51.176;-0.708;2022-12-18T11:15:56;46;44;
55518;PMS5003;41724;51.176;-0.708;2022-12-18T11:18:26;42;41;
55518;PMS5003;41724;51.176;-0.708;2022-12-18T11:20:55;40;39;
55518;PMS5003;41724;51.176;-0.708;2022-12-18T11:23:25;51;49;
55518;PMS5003;41724;51.176;-0.708;2022-12-18T11:25:54;43;40;
55518;PMS5003;41724;51.176;-0.708;2022-12-18T11:28:25;42;40;
55518;PMS5003;41724;51.176;-0.708;2022-12-18T11:31:09;42;38;
55518;PMS5003;41724;51.176;-0.708;2022-12-18T11:33:45;45;42;
55518;PMS5003;41724;51.176;-0.708;2022-12-18T11:36:19;41;39;
55518;PMS5003;41724;51.176;-0.708;2022-12-18T11:38:48;55;47;
55518;PMS5003;41724;51.176;-0.708;2022-12-18T11:41:19;42;41;
55518;PMS5003;41724;51.176;-0.708;2022-12-18T11:43:53;45;43;
55518;PMS5003;41724;51.176;-0.708;2022-12-18T11:46:26;53;50;
55518;PMS5003;41724;51.176;-0.708;2022-12-18T11:49:01;44;42;
55518;PMS5003;41724;51.176;-0.708;2022-12-18T11:51:35;40;39;
55518;PMS5003;41724;51.176;-0.708;2022-12-18T11:54:10;50;46;
55518;PMS5003;41724;51.176;-0.708;2022-12-18T11:56:41;47;46;
55518;PMS5003;41724;51.176;-0.708;2022-12-18T11:59:15;46;44;
55518;PMS5003;41724;51.176;-0.708;2022-12-18T12:01:55;43;40;
55518;PMS5003;41724;51.176;-0.708;2022-12-18T12:04:37;46;45;
55518;PMS5003;41724;51.176;-0.708;2022-12-18T12:07:31;57;55;
55518;PMS5003;41724;51.176;-0.708;2022-12-18T12:10:10;48;44;
55518;PMS5003;41724;51.176;-0.708;2022-12-18T12:12:56;54;52;
55518;PMS5003;41724;51.176;-0.708;2022-12-18T12:15:38;51;48;
55518;PMS5003;41724;51.176;-0.708;2022-12-18T12:18:16;52;48;
55518;PMS5003;41724;51.176;-0.708;2022-12-18T12:20:58;54;52;
55518;PMS5003;41724;51.176;-0.708;2022-12-18T12:23:35;53;49;
55518;PMS5003;41724;51.176;-0.708;2022-12-18T12:26:11;54;51;
55518;PMS5003;41724;51.176;-0.708;2022-12-18T12:28:50;57;50;
55518;PMS5003;41724;51.176;-0.708;2022-12-18T12:31:31;47;46;
55518;PMS5003;41724;51.176;-0.708;2022-12-18T12:34:14;53;49;
55518;PMS5003;41724;51.176;-0.708;2022-12-18T12:36:52;49;47;
55518;PMS5003;41724;51.176;-0.708;2022-12-18T12:39:30;48;46;
55518;PMS5003;41724;51.176;-0.708;2022-12-18T12:42:01;49;46;
55518;PMS5003;41724;51.176;-0.708;2022-12-18T12:44:30;46;45;
55518;PMS5003;41724;51.176;-0.708;2022-12-18T12:47:04;44;43;
55518;PMS5003;41724;51.176;-0.708;2022-12-18T12:49:39;42;39;
55518;PMS5003;41724;51.176;-0.708;2022-12-18T12:52:07;50;47;
55518;PMS5003;41724;51.176;-0.708;2022-12-18T12:54:42;40;39;
55518;PMS5003;41724;51.176;-0.708;2022-12-18T12:57:12;49;49;
55518;PMS5003;41724;51.176;-0.708;2022-12-18T12:59:49;36;35;
55518;PMS5003;41724;51.176;-0.708;2022-12-18T13:02:28;45;42;
55518;PMS5003;41724;51.176;-0.708;2022-12-18T13:05:04;50;45;
55518;PMS5003;41724;51.176;-0.708;2022-12-18T13:07:41;40;39;
55518;PMS5003;41724;51.176;-0.708;2022-12-18T13:10:26;44;41;
55518;PMS5003;41724;51.176;-0.708;2022-12-18T13:13:01;41;39;
55518;PMS5003;41724;51.176;-0.708;2022-12-18T13:15:32;38;36;
55518;PMS5003;41724;51.176;-0.708;2022-12-18T13:18:03;47;42;
55518;PMS5003;41724;51.176;-0.708;2022-12-18T13:20:37;40;37;
55518;PMS5003;41724;51.176;-0.708;2022-12-18T13:23:25;45;43;
55518;PMS5003;41724;51.176;-0.708;2022-12-18T13:25:57;35;34;
55518;PMS5003;41724;51.176;-0.708;2022-12-18T13:28:49;35;34;
55518;PMS5003;41724;51.176;-0.708;2022-12-18T13:31:57;39;37;
55518;PMS5003;41724;51.176;-0.708;2022-12-18T13:34:26;33;31;
55518;PMS5003;41724;51.176;-0.708;2022-12-18T13:36:55;34;32;
55518;PMS5003;41724;51.176;-0.708;2022-12-18T13:39:24;36;32;
55518;PMS5003;41724;51.176;-0.708;2022-12-18T13:42:37;24;23;
55518;PMS5003;41724;51.176;-0.708;2022-12-18T13:45:25;31;31;
55518;PMS5003;41724;51.176;-0.708;2022-12-18T13:48:10;25;24;
55518;PMS5003;41724;51.176;-0.708;2022-12-18T13:50:48;28;27;
55518;PMS5003;41724;51.176;-0.708;2022-12-18T13:53:20;22;20;
55518;PMS5003;41724;51.176;-0.708;2022-12-18T13:55:49;23;23;
55518;PMS5003;41724;51.176;-0.708;2022-12-18T13:58:17;31;31;
55518;PMS5003;41724;51.176;-0.708;2022-12-18T14:00:44;35;33;
55518;PMS5003;41724;51.176;-0.708;2022-12-18T14:03:18;25;25;
55518;PMS5003;41724;51.176;-0.708;2022-12-18T14:05:54;28;27;
55518;PMS5003;41724;51.176;-0.708;2022-12-18T14:08:24;26;24;
55518;PMS5003;41724;51.176;-0.708;2022-12-18T14:10:59;20;18;
55518;PMS5003;41724;51.176;-0.708;2022-12-18T14:13:29;25;24;
55518;PMS5003;41724;51.176;-0.708;2022-12-18T14:15:58;18;16;
55518;PMS5003;41724;51.176;-0.708;2022-12-18T14:18:29;16;16;
55518;PMS5003;41724;51.176;-0.708;2022-12-18T14:21:03;17;16;
55518;PMS5003;41724;51.176;-0.708;2022-12-18T14:23:32;21;21;
55518;PMS5003;41724;51.176;-0.708;2022-12-18T14:26:01;16;16;
55518;PMS5003;41724;51.176;-0.708;2022-12-18T14:28:45;15;15;
55518;PMS5003;41724;51.176;-0.708;2022-12-18T14:31:16;13;13;
55518;PMS5003;41724;51.176;-0.708;2022-12-18T14:33:44;14;14;
55518;PMS5003;41724;51.176;-0.708;2022-12-18T14:36:14;14;14;
55518;PMS5003;41724;51.176;-0.708;2022-12-18T14:38:43;14;14;
55518;PMS5003;41724;51.176;-0.708;2022-12-18T14:41:14;11;11;
55518;PMS5003;41724;51.176;-0.708;2022-12-18T14:43:43;15;15;
55518;PMS5003;41724;51.176;-0.708;2022-12-18T14:46:25;9;9;
55518;PMS5003;41724;51.176;-0.708;2022-12-18T14:48:55;11;11;
55518;PMS5003;41724;51.176;-0.708;2022-12-18T14:51:23;12;12;
55518;PMS5003;41724;51.176;-0.708;2022-12-18T14:53:53;9;9;
55518;PMS5003;41724;51.176;-0.708;2022-12-18T14:56:22;11;9;
55518;PMS5003;41724;51.176;-0.708;2022-12-18T14:58:53;9;7;
55518;PMS5003;41724;51.176;-0.708;2022-12-18T15:01:24;9;7;
55518;PMS5003;41724;51.176;-0.708;2022-12-18T15:03:54;8;8;
55518;PMS5003;41724;51.176;-0.708;2022-12-18T15:06:24;10;9;
55518;PMS5003;41724;51.176;-0.708;2022-12-18T15:08:55;8;7;
55518;PMS5003;41724;51.176;-0.708;2022-12-18T15:11:28;9;9;
55518;PMS5003;41724;51.176;-0.708;2022-12-18T15:14:00;6;5;
55518;PMS5003;41724;51.176;-0.708;2022-12-18T15:16:51;7;6;
55518;PMS5003;41724;51.176;-0.708;2022-12-18T15:19:21;12;12;
55518;PMS5003;41724;51.176;-0.708;2022-12-18T15:21:58;8;6;
55518;PMS5003;41724;51.176;-0.708;2022-12-18T15:24:27;8;7;
55518;PMS5003;41724;51.176;-0.708;2022-12-18T15:26:58;5;5;
55518;PMS5003;41724;51.176;-0.708;2022-12-18T15:29:26;6;6;
55518;PMS5003;41724;51.176;-0.708;2022-12-18T15:32:01;8;8;
55518;PMS5003;41724;51.176;-0.708;2022-12-18T15:34:30;6;6;
55518;PMS5003;41724;51.176;-0.708;2022-12-18T15:36:58;5;5;
55518;PMS5003;41724;51.176;-0.708;2022-12-18T15:39:25;6;6;
55518;PMS5003;41724;51.176;-0.708;2022-12-18T15:41:52;6;6;
55518;PMS5003;41724;51.176;-0.708;2022-12-18T15:44:21;6;6;
55518;PMS5003;41724;51.176;-0.708;2022-12-18T15:46:50;4;4;
55518;PMS5003;41724;51.176;-0.708;2022-12-18T15:49:17;3;3;
55518;PMS5003;41724;51.176;-0.708;2022-12-18T15:51:44;4;4;
55518;PMS5003;41724;51.176;-0.708;2022-12-18T15:54:15;4;4;
55518;PMS5003;41724;51.176;-0.708;2022-12-18T15:56:44;4;4;
55518;PMS5003;41724;51.176;-0.708;2022-12-18T15:59:11;4;3;
55518;PMS5003;41724;51.176;-0.708;2022-12-18T16:01:40;3;3;
55518;PMS5003;41724;51.176;-0.708;2022-12-18T16:04:10;4;4;
55518;PMS5003;41724;51.176;-0.708;2022-12-18T16:06:39;4;4;
55518;PMS5003;41724;51.176;-0.708;2022-12-18T16:09:07;3;3;
55518;PMS5003;41724;51.176;-0.708;2022-12-18T16:11:35;3;3;
55518;PMS5003;41724;51.176;-0.708;2022-12-18T16:14:05;3;3;
55518;PMS5003;41724;51.176;-0.708;2022-12-18T16:16:38;3;3;
55518;PMS5003;41724;51.176;-0.708;2022-12-18T16:19:05;2;2;
55518;PMS5003;41724;51.176;-0.708;2022-12-18T16:21:32;2;2;
55518;PMS5003;41724;51.176;-0.708;2022-12-18T16:23:59;4;4;
55518;PMS5003;41724;51.176;-0.708;2022-12-18T16:26:26;3;3;